sensor_id;sensor_type;location;lat;lon;timestamp;pressure;altitude;pressure_sealevel;temperature;humidity
14790;BME280;7486;51.010;10.366;2022-07-23T00:01:24;98432.50;;;16.51;65.35
14790;BME280;7486;51.010;10.366;2022-07-23T00:03:53;98443.47;;;15.98;67.69
14790;BME280;7486;51.010;10.366;2022-07-23T00:06:21;98443.56;;;16.03;67.65
14790;BME280;7486;51.010;10.366;2022-07-23T00:08:47;98433.25;;;15.84;68.55
14790;BME280;7486;51.010;10.366;2022-07-23T00:11:14;98428.28;;;15.75;68.75
14790;BME280;7486;51.010;10.366;2022-07-23T00:13:41;98409.69;;;15.81;68.26
14790;BME280;7486;51.010;10.366;2022-07-23T00:16:08;98427.00;;;15.66;69.07
14790;BME280;7486;51.010;10.366;2022-07-23T00:18:35;98420.88;;;15.43;70.15
14790;BME280;7486;51.010;10.366;2022-07-23T00:21:02;98424.69;;;15.58;69.68
14790;BME280;7486;51.010;10.366;2022-07-23T00:23:29;98416.59;;;15.53;69.70
14790;BME280;7486;51.010;10.366;2022-07-23T00:25:56;98404.88;;;15.54;69.69
14790;BME280;7486;51.010;10.366;2022-07-23T00:28:23;98408.00;;;15.51;69.78
14790;BME280;7486;51.010;10.366;2022-07-23T00:30:49;98416.59;;;15.53;69.82
14790;BME280;7486;51.010;10.366;2022-07-23T00:33:16;98386.28;;;15.36;69.68
14790;BME280;7486;51.010;10.366;2022-07-23T00:35:43;98414.25;;;15.68;69.14
14790;BME280;7486;51.010;10.366;2022-07-23T00:38:10;98384.28;;;15.55;69.26
14790;BME280;7486;51.010;10.366;2022-07-23T00:40:38;98399.06;;;15.46;70.03
14790;BME280;7486;51.010;10.366;2022-07-23T00:43:05;98370.75;;;15.33;69.83
14790;BME280;7486;51.010;10.366;2022-07-23T00:45:32;98389.44;;;15.33;70.52
14790;BME280;7486;51.010;10.366;2022-07-23T00:47:59;98374.66;;;15.19;70.79
14790;BME280;7486;51.010;10.366;2022-07-23T00:50:26;98377.31;;;15.07;70.86
14790;BME280;7486;51.010;10.366;2022-07-23T00:52:53;98342.28;;;14.92;70.77
14790;BME280;7486;51.010;10.366;2022-07-23T00:55:21;98374.28;;;14.92;71.62
14790;BME280;7486;51.010;10.366;2022-07-23T00:57:48;98375.88;;;14.70;72.57
14790;BME280;7486;51.010;10.366;2022-07-23T01:00:15;98370.88;;;14.62;73.20
14790;BME280;7486;51.010;10.366;2022-07-23T01:02:42;98371.56;;;14.57;73.64
14790;BME280;7486;51.010;10.366;2022-07-23T01:05:09;98330.41;;;14.42;73.01
14790;BME280;7486;51.010;10.366;2022-07-23T01:07:36;98370.44;;;14.77;72.54
14790;BME280;7486;51.010;10.366;2022-07-23T01:10:04;98365.09;;;14.77;72.38
14790;BME280;7486;51.010;10.366;2022-07-23T01:12:32;98360.38;;;14.79;72.16
14790;BME280;7486;51.010;10.366;2022-07-23T01:14:59;98323.13;;;14.60;71.93
14790;BME280;7486;51.010;10.366;2022-07-23T01:17:28;98353.44;;;14.89;71.59
14790;BME280;7486;51.010;10.366;2022-07-23T01:19:55;98348.19;;;14.71;72.43
14790;BME280;7486;51.010;10.366;2022-07-23T01:22:22;98350.22;;;14.57;73.34
14790;BME280;7486;51.010;10.366;2022-07-23T01:24:50;98345.81;;;14.51;73.65
14790;BME280;7486;51.010;10.366;2022-07-23T01:27:21;98323.84;;;14.38;74.03
14790;BME280;7486;51.010;10.366;2022-07-23T01:29:54;98324.88;;;14.37;74.40
14790;BME280;7486;51.010;10.366;2022-07-23T01:32:21;98322.53;;;14.29;74.85
14790;BME280;7486;51.010;10.366;2022-07-23T01:34:48;98326.28;;;14.39;74.54
14790;BME280;7486;51.010;10.366;2022-07-23T01:37:15;98338.03;;;14.50;74.09
14790;BME280;7486;51.010;10.366;2022-07-23T01:39:42;98323.69;;;14.62;73.54
14790;BME280;7486;51.010;10.366;2022-07-23T01:42:10;98308.75;;;14.61;72.92
14790;BME280;7486;51.010;10.366;2022-07-23T01:44:39;98337.28;;;14.31;74.47
14790;BME280;7486;51.010;10.366;2022-07-23T01:47:10;98356.41;;;14.40;75.13
14790;BME280;7486;51.010;10.366;2022-07-23T01:49:37;98394.31;;;14.71;74.30
14790;BME280;7486;51.010;10.366;2022-07-23T01:52:36;98423.22;;;14.98;74.52
14790;BME280;7486;51.010;10.366;2022-07-23T01:55:03;98462.44;;;14.97;76.46
14790;BME280;7486;51.010;10.366;2022-07-23T01:57:30;98399.09;;;14.81;77.77
14790;BME280;7486;51.010;10.366;2022-07-23T01:59:58;98388.84;;;14.66;78.27
14790;BME280;7486;51.010;10.366;2022-07-23T02:02:25;98410.66;;;14.45;80.86
14790;BME280;7486;51.010;10.366;2022-07-23T02:04:53;98377.66;;;14.28;82.25
14790;BME280;7486;51.010;10.366;2022-07-23T02:07:24;98376.28;;;14.44;81.19
14790;BME280;7486;51.010;10.366;2022-07-23T02:09:51;98361.97;;;14.38;81.41
14790;BME280;7486;51.010;10.366;2022-07-23T02:12:18;98366.25;;;14.39;81.63
14790;BME280;7486;51.010;10.366;2022-07-23T02:14:45;98356.53;;;14.15;82.38
14790;BME280;7486;51.010;10.366;2022-07-23T02:17:11;98348.59;;;13.97;83.15
14790;BME280;7486;51.010;10.366;2022-07-23T02:19:38;98342.41;;;13.85;83.96
14790;BME280;7486;51.010;10.366;2022-07-23T02:22:05;98334.56;;;13.90;83.38
14790;BME280;7486;51.010;10.366;2022-07-23T02:24:31;98328.53;;;13.94;83.64
14790;BME280;7486;51.010;10.366;2022-07-23T02:26:58;98330.91;;;14.02;83.52
14790;BME280;7486;51.010;10.366;2022-07-23T02:29:25;98330.50;;;14.17;82.46
14790;BME280;7486;51.010;10.366;2022-07-23T02:31:53;98337.69;;;14.28;82.20
14790;BME280;7486;51.010;10.366;2022-07-23T02:34:21;98340.22;;;14.41;82.18
14790;BME280;7486;51.010;10.366;2022-07-23T02:36:49;98335.78;;;14.65;80.91
14790;BME280;7486;51.010;10.366;2022-07-23T02:39:16;98327.06;;;14.69;79.90
14790;BME280;7486;51.010;10.366;2022-07-23T02:41:43;98316.50;;;14.63;80.64
14790;BME280;7486;51.010;10.366;2022-07-23T02:44:10;98260.19;;;14.18;80.93
14790;BME280;7486;51.010;10.366;2022-07-23T02:46:37;98292.41;;;14.16;81.74
14790;BME280;7486;51.010;10.366;2022-07-23T02:49:05;98328.56;;;14.24;82.85
14790;BME280;7486;51.010;10.366;2022-07-23T02:51:32;98330.88;;;14.32;82.91
14790;BME280;7486;51.010;10.366;2022-07-23T02:54:03;98332.84;;;14.55;81.62
14790;BME280;7486;51.010;10.366;2022-07-23T02:56:30;98317.06;;;14.53;81.17
14790;BME280;7486;51.010;10.366;2022-07-23T02:58:56;98321.88;;;14.33;81.55
14790;BME280;7486;51.010;10.366;2022-07-23T03:01:23;98339.44;;;14.52;81.29
14790;BME280;7486;51.010;10.366;2022-07-23T03:03:50;98344.19;;;14.50;80.62
14790;BME280;7486;51.010;10.366;2022-07-23T03:06:17;98320.34;;;14.55;80.58
14790;BME280;7486;51.010;10.366;2022-07-23T03:08:44;98328.84;;;14.34;81.51
14790;BME280;7486;51.010;10.366;2022-07-23T03:11:10;98322.06;;;14.20;82.10
14790;BME280;7486;51.010;10.366;2022-07-23T03:13:39;98313.03;;;14.21;82.31
14790;BME280;7486;51.010;10.366;2022-07-23T03:16:06;98320.47;;;14.31;82.84
14790;BME280;7486;51.010;10.366;2022-07-23T03:18:35;98309.56;;;14.20;81.93
14790;BME280;7486;51.010;10.366;2022-07-23T03:21:06;98328.00;;;14.34;82.29
14790;BME280;7486;51.010;10.366;2022-07-23T03:23:34;98340.38;;;14.28;82.50
14790;BME280;7486;51.010;10.366;2022-07-23T03:26:01;98339.78;;;14.26;82.64
14790;BME280;7486;51.010;10.366;2022-07-23T03:28:28;98363.16;;;14.12;83.11
14790;BME280;7486;51.010;10.366;2022-07-23T03:30:54;98372.56;;;13.97;84.68
14790;BME280;7486;51.010;10.366;2022-07-23T03:33:21;98380.34;;;14.28;82.81
14790;BME280;7486;51.010;10.366;2022-07-23T03:35:48;98374.88;;;14.41;81.96
14790;BME280;7486;51.010;10.366;2022-07-23T03:38:20;98392.00;;;14.45;82.38
14790;BME280;7486;51.010;10.366;2022-07-23T03:40:47;98404.63;;;14.38;82.82
14790;BME280;7486;51.010;10.366;2022-07-23T03:43:13;98378.94;;;14.44;82.71
14790;BME280;7486;51.010;10.366;2022-07-23T03:45:40;98386.63;;;14.34;82.53
14790;BME280;7486;51.010;10.366;2022-07-23T03:48:07;98398.94;;;14.35;82.70
14790;BME280;7486;51.010;10.366;2022-07-23T03:50:34;98377.97;;;14.38;82.54
14790;BME280;7486;51.010;10.366;2022-07-23T03:53:01;98322.50;;;13.87;84.20
14790;BME280;7486;51.010;10.366;2022-07-23T03:55:27;98337.44;;;13.70;86.53
14790;BME280;7486;51.010;10.366;2022-07-23T03:57:55;98349.69;;;13.59;87.65
14790;BME280;7486;51.010;10.366;2022-07-23T04:00:22;98347.56;;;13.43;88.25
14790;BME280;7486;51.010;10.366;2022-07-23T04:02:49;98356.72;;;13.47;88.61
14790;BME280;7486;51.010;10.366;2022-07-23T04:05:17;98361.75;;;13.37;90.01
14790;BME280;7486;51.010;10.366;2022-07-23T04:07:47;98365.84;;;13.58;88.33
14790;BME280;7486;51.010;10.366;2022-07-23T04:10:14;98378.94;;;13.59;87.97
14790;BME280;7486;51.010;10.366;2022-07-23T04:12:41;98381.09;;;13.69;87.68
14790;BME280;7486;51.010;10.366;2022-07-23T04:15:09;98380.28;;;13.87;86.87
14790;BME280;7486;51.010;10.366;2022-07-23T04:17:36;98380.31;;;13.98;85.69
14790;BME280;7486;51.010;10.366;2022-07-23T04:20:03;98359.56;;;13.89;84.78
14790;BME280;7486;51.010;10.366;2022-07-23T04:22:36;98388.59;;;14.08;85.05
14790;BME280;7486;51.010;10.366;2022-07-23T04:25:03;98391.66;;;13.57;87.70
14790;BME280;7486;51.010;10.366;2022-07-23T04:27:30;98397.22;;;13.31;90.73
14790;BME280;7486;51.010;10.366;2022-07-23T04:29:58;98396.88;;;13.46;90.26
14790;BME280;7486;51.010;10.366;2022-07-23T04:32:24;98378.88;;;13.66;88.58
14790;BME280;7486;51.010;10.366;2022-07-23T04:34:51;98386.19;;;13.70;89.19
14790;BME280;7486;51.010;10.366;2022-07-23T04:37:18;98391.34;;;13.84;88.18
14790;BME280;7486;51.010;10.366;2022-07-23T04:39:45;98381.03;;;13.76;87.14
14790;BME280;7486;51.010;10.366;2022-07-23T04:42:13;98400.53;;;13.69;87.99
14790;BME280;7486;51.010;10.366;2022-07-23T04:44:40;98396.38;;;13.73;88.37
14790;BME280;7486;51.010;10.366;2022-07-23T04:47:07;98398.03;;;13.50;89.23
14790;BME280;7486;51.010;10.366;2022-07-23T04:49:34;98388.03;;;13.52;90.20
14790;BME280;7486;51.010;10.366;2022-07-23T04:52:01;98395.13;;;13.33;90.17
14790;BME280;7486;51.010;10.366;2022-07-23T04:54:28;98391.78;;;13.19;92.06
14790;BME280;7486;51.010;10.366;2022-07-23T04:56:55;98396.84;;;13.52;91.21
14790;BME280;7486;51.010;10.366;2022-07-23T04:59:22;98388.78;;;13.59;89.82
14790;BME280;7486;51.010;10.366;2022-07-23T05:01:55;98401.97;;;13.47;90.50
14790;BME280;7486;51.010;10.366;2022-07-23T05:04:21;98398.25;;;13.73;89.67
14790;BME280;7486;51.010;10.366;2022-07-23T05:06:48;98402.38;;;13.87;88.43
14790;BME280;7486;51.010;10.366;2022-07-23T05:09:15;98392.31;;;14.07;88.57
14790;BME280;7486;51.010;10.366;2022-07-23T05:11:42;98384.91;;;14.39;87.34
14790;BME280;7486;51.010;10.366;2022-07-23T05:14:09;98386.25;;;14.48;85.95
14790;BME280;7486;51.010;10.366;2022-07-23T05:16:35;98399.34;;;14.50;85.39
14790;BME280;7486;51.010;10.366;2022-07-23T05:19:08;98414.41;;;14.44;84.33
14790;BME280;7486;51.010;10.366;2022-07-23T05:21:38;98404.56;;;14.45;84.06
14790;BME280;7486;51.010;10.366;2022-07-23T05:24:05;98408.78;;;14.34;85.57
14790;BME280;7486;51.010;10.366;2022-07-23T05:26:32;98408.66;;;14.11;87.21
14790;BME280;7486;51.010;10.366;2022-07-23T05:28:59;98409.66;;;14.28;86.13
14790;BME280;7486;51.010;10.366;2022-07-23T05:31:26;98414.66;;;14.36;85.65
14790;BME280;7486;51.010;10.366;2022-07-23T05:33:53;98401.81;;;14.33;85.60
14790;BME280;7486;51.010;10.366;2022-07-23T05:36:20;98406.53;;;14.49;86.35
14790;BME280;7486;51.010;10.366;2022-07-23T05:38:55;98404.56;;;14.56;86.23
14790;BME280;7486;51.010;10.366;2022-07-23T05:41:22;98408.47;;;14.42;85.86
14790;BME280;7486;51.010;10.366;2022-07-23T05:43:49;98415.56;;;14.48;86.48
14790;BME280;7486;51.010;10.366;2022-07-23T05:46:16;98407.03;;;14.58;85.05
14790;BME280;7486;51.010;10.366;2022-07-23T05:48:47;98405.63;;;14.55;86.72
14790;BME280;7486;51.010;10.366;2022-07-23T05:51:46;98407.28;;;14.68;86.20
14790;BME280;7486;51.010;10.366;2022-07-23T05:54:15;98392.38;;;14.90;85.77
14790;BME280;7486;51.010;10.366;2022-07-23T05:56:42;98383.75;;;14.65;86.68
14790;BME280;7486;51.010;10.366;2022-07-23T05:59:09;98391.91;;;14.82;87.02
14790;BME280;7486;51.010;10.366;2022-07-23T06:01:35;98399.94;;;15.05;86.78
14790;BME280;7486;51.010;10.366;2022-07-23T06:04:08;98405.03;;;15.18;83.23
14790;BME280;7486;51.010;10.366;2022-07-23T06:06:38;98410.19;;;15.31;82.93
14790;BME280;7486;51.010;10.366;2022-07-23T06:09:06;98386.97;;;15.20;83.34
14790;BME280;7486;51.010;10.366;2022-07-23T06:11:34;98418.66;;;15.28;84.23
14790;BME280;7486;51.010;10.366;2022-07-23T06:14:00;98423.31;;;15.33;81.62
14790;BME280;7486;51.010;10.366;2022-07-23T06:16:40;98404.28;;;15.29;80.92
14790;BME280;7486;51.010;10.366;2022-07-23T06:19:07;98425.75;;;15.34;82.22
14790;BME280;7486;51.010;10.366;2022-07-23T06:21:33;98431.25;;;15.21;82.25
14790;BME280;7486;51.010;10.366;2022-07-23T06:24:16;98432.94;;;15.34;80.10
14790;BME280;7486;51.010;10.366;2022-07-23T06:26:43;98429.09;;;15.41;78.15
14790;BME280;7486;51.010;10.366;2022-07-23T06:29:10;98379.31;;;15.23;78.92
14790;BME280;7486;51.010;10.366;2022-07-23T06:31:36;98401.75;;;15.34;80.39
14790;BME280;7486;51.010;10.366;2022-07-23T06:34:04;98395.31;;;15.12;82.00
14790;BME280;7486;51.010;10.366;2022-07-23T06:36:30;98399.94;;;15.05;82.99
14790;BME280;7486;51.010;10.366;2022-07-23T06:38:57;98411.03;;;14.90;83.46
14790;BME280;7486;51.010;10.366;2022-07-23T06:41:24;98412.69;;;15.03;83.53
14790;BME280;7486;51.010;10.366;2022-07-23T06:43:51;98393.78;;;15.04;83.33
14790;BME280;7486;51.010;10.366;2022-07-23T06:46:20;98395.66;;;15.15;83.48
14790;BME280;7486;51.010;10.366;2022-07-23T06:48:48;98396.34;;;15.11;84.05
14790;BME280;7486;51.010;10.366;2022-07-23T06:51:15;98413.19;;;15.23;80.23
14790;BME280;7486;51.010;10.366;2022-07-23T06:53:41;98411.47;;;15.52;79.33
14790;BME280;7486;51.010;10.366;2022-07-23T06:56:08;98425.03;;;15.73;76.43
14790;BME280;7486;51.010;10.366;2022-07-23T06:58:35;98425.34;;;16.00;73.45
14790;BME280;7486;51.010;10.366;2022-07-23T07:01:02;98427.53;;;16.15;73.08
14790;BME280;7486;51.010;10.366;2022-07-23T07:03:29;98426.66;;;16.38;71.79
14790;BME280;7486;51.010;10.366;2022-07-23T07:05:56;98403.88;;;16.35;71.00
14790;BME280;7486;51.010;10.366;2022-07-23T07:08:23;98423.63;;;16.62;69.85
14790;BME280;7486;51.010;10.366;2022-07-23T07:10:50;98435.84;;;16.87;69.78
14790;BME280;7486;51.010;10.366;2022-07-23T07:13:16;98435.50;;;16.95;68.63
14790;BME280;7486;51.010;10.366;2022-07-23T07:15:43;98440.09;;;16.99;69.03
14790;BME280;7486;51.010;10.366;2022-07-23T07:18:10;98439.47;;;17.09;69.35
14790;BME280;7486;51.010;10.366;2022-07-23T07:20:37;98430.78;;;17.02;68.42
14790;BME280;7486;51.010;10.366;2022-07-23T07:23:03;98444.81;;;17.09;68.89
14790;BME280;7486;51.010;10.366;2022-07-23T07:25:30;98452.84;;;17.09;68.27
14790;BME280;7486;51.010;10.366;2022-07-23T07:27:57;98452.38;;;17.12;68.15
14790;BME280;7486;51.010;10.366;2022-07-23T07:30:23;98442.22;;;17.14;68.62
14790;BME280;7486;51.010;10.366;2022-07-23T07:32:53;98453.53;;;16.88;69.60
14790;BME280;7486;51.010;10.366;2022-07-23T07:35:22;98458.44;;;16.91;69.94
14790;BME280;7486;51.010;10.366;2022-07-23T07:37:49;98432.03;;;16.54;70.16
14790;BME280;7486;51.010;10.366;2022-07-23T07:40:16;98463.47;;;16.75;69.82
14790;BME280;7486;51.010;10.366;2022-07-23T07:42:52;98465.38;;;16.63;71.22
14790;BME280;7486;51.010;10.366;2022-07-23T07:45:20;98468.44;;;16.84;70.69
14790;BME280;7486;51.010;10.366;2022-07-23T07:47:47;98473.44;;;16.92;70.07
14790;BME280;7486;51.010;10.366;2022-07-23T07:50:14;98476.53;;;16.89;69.71
14790;BME280;7486;51.010;10.366;2022-07-23T07:52:41;98474.06;;;16.70;69.37
14790;BME280;7486;51.010;10.366;2022-07-23T07:55:09;98471.47;;;16.75;68.38
14790;BME280;7486;51.010;10.366;2022-07-23T07:57:36;98486.34;;;17.11;67.71
14790;BME280;7486;51.010;10.366;2022-07-23T08:00:08;98492.69;;;17.22;66.62
14790;BME280;7486;51.010;10.366;2022-07-23T08:02:45;98497.94;;;17.17;68.14
14790;BME280;7486;51.010;10.366;2022-07-23T08:05:13;98488.44;;;17.09;66.30
14790;BME280;7486;51.010;10.366;2022-07-23T08:07:40;98500.78;;;17.10;66.61
14790;BME280;7486;51.010;10.366;2022-07-23T08:10:08;98495.22;;;17.29;67.91
14790;BME280;7486;51.010;10.366;2022-07-23T08:12:42;98499.03;;;17.49;67.39
14790;BME280;7486;51.010;10.366;2022-07-23T08:15:09;98508.91;;;17.49;66.76
14790;BME280;7486;51.010;10.366;2022-07-23T08:17:41;98512.63;;;17.64;65.16
14790;BME280;7486;51.010;10.366;2022-07-23T08:20:09;98511.38;;;17.67;65.61
14790;BME280;7486;51.010;10.366;2022-07-23T08:25:19;98504.34;;;16.88;69.27
14790;BME280;7486;51.010;10.366;2022-07-23T08:27:46;98474.25;;;16.81;70.09
14790;BME280;7486;51.010;10.366;2022-07-23T08:30:13;98510.09;;;17.08;69.75
14790;BME280;7486;51.010;10.366;2022-07-23T08:32:59;98513.19;;;16.88;70.60
14790;BME280;7486;51.010;10.366;2022-07-23T08:35:35;98505.50;;;16.63;71.78
14790;BME280;7486;51.010;10.366;2022-07-23T08:38:04;98517.56;;;16.66;70.47
14790;BME280;7486;51.010;10.366;2022-07-23T08:40:34;98517.00;;;16.64;71.21
14790;BME280;7486;51.010;10.366;2022-07-23T08:43:12;98512.53;;;16.41;74.58
14790;BME280;7486;51.010;10.366;2022-07-23T08:45:41;98502.31;;;16.38;75.71
14790;BME280;7486;51.010;10.366;2022-07-23T08:48:12;98517.31;;;16.39;74.02
14790;BME280;7486;51.010;10.366;2022-07-23T08:50:53;98513.44;;;16.87;71.09
14790;BME280;7486;51.010;10.366;2022-07-23T08:53:25;98518.03;;;17.03;69.98
14790;BME280;7486;51.010;10.366;2022-07-23T08:55:59;98525.63;;;17.39;70.06
14790;BME280;7486;51.010;10.366;2022-07-23T08:58:26;98525.72;;;17.61;68.69
14790;BME280;7486;51.010;10.366;2022-07-23T09:00:55;98514.28;;;17.65;68.65
14790;BME280;7486;51.010;10.366;2022-07-23T09:03:25;98529.13;;;17.90;68.02
14790;BME280;7486;51.010;10.366;2022-07-23T09:05:52;98529.50;;;17.98;67.41
14790;BME280;7486;51.010;10.366;2022-07-23T09:08:21;98534.78;;;18.10;67.85
14790;BME280;7486;51.010;10.366;2022-07-23T09:16:02;98507.16;;;18.09;65.40
14790;BME280;7486;51.010;10.366;2022-07-23T09:18:31;98528.69;;;18.36;65.63
14790;BME280;7486;51.010;10.366;2022-07-23T09:21:09;98533.25;;;18.14;65.11
14790;BME280;7486;51.010;10.366;2022-07-23T09:23:58;98541.34;;;18.19;68.36
14790;BME280;7486;51.010;10.366;2022-07-23T09:26:34;98543.66;;;18.49;65.18
14790;BME280;7486;51.010;10.366;2022-07-23T09:29:11;98536.59;;;18.64;62.97
14790;BME280;7486;51.010;10.366;2022-07-23T09:31:48;98534.28;;;18.51;65.06
14790;BME280;7486;51.010;10.366;2022-07-23T09:36:54;98541.88;;;18.38;63.72
14790;BME280;7486;51.010;10.366;2022-07-23T09:39:30;98532.16;;;18.53;63.09
14790;BME280;7486;51.010;10.366;2022-07-23T09:42:12;98536.16;;;18.51;62.90
14790;BME280;7486;51.010;10.366;2022-07-23T09:44:53;98535.69;;;19.02;61.20
14790;BME280;7486;51.010;10.366;2022-07-23T09:47:21;98533.09;;;18.86;61.45
14790;BME280;7486;51.010;10.366;2022-07-23T09:50:08;98537.31;;;18.82;61.84
14790;BME280;7486;51.010;10.366;2022-07-23T09:52:43;98530.03;;;19.26;62.25
14790;BME280;7486;51.010;10.366;2022-07-23T09:55:10;98528.22;;;19.31;60.98
14790;BME280;7486;51.010;10.366;2022-07-23T09:57:37;98499.44;;;18.51;62.48
14790;BME280;7486;51.010;10.366;2022-07-23T10:00:08;98506.97;;;18.16;65.52
14790;BME280;7486;51.010;10.366;2022-07-23T10:02:36;98530.56;;;18.52;67.01
14790;BME280;7486;51.010;10.366;2022-07-23T10:05:33;98534.25;;;18.95;64.75
14790;BME280;7486;51.010;10.366;2022-07-23T10:08:21;98533.22;;;19.01;63.56
14790;BME280;7486;51.010;10.366;2022-07-23T10:11:15;98521.13;;;19.20;61.97
14790;BME280;7486;51.010;10.366;2022-07-23T10:13:53;98535.88;;;19.49;61.28
14790;BME280;7486;51.010;10.366;2022-07-23T10:16:26;98518.97;;;18.95;63.51
14790;BME280;7486;51.010;10.366;2022-07-23T10:18:54;98533.16;;;19.44;67.56
14790;BME280;7486;51.010;10.366;2022-07-23T10:21:30;98530.66;;;19.69;63.00
14790;BME280;7486;51.010;10.366;2022-07-23T10:37:54;98520.19;;;20.62;60.47
14790;BME280;7486;51.010;10.366;2022-07-23T10:40:23;98490.41;;;20.21;57.68
14790;BME280;7486;51.010;10.366;2022-07-23T10:42:50;98527.88;;;20.33;58.41
14790;BME280;7486;51.010;10.366;2022-07-23T10:47:56;98529.13;;;20.72;56.04
14790;BME280;7486;51.010;10.366;2022-07-23T10:50:38;98527.16;;;21.30;56.33
14790;BME280;7486;51.010;10.366;2022-07-23T10:53:10;98526.84;;;21.72;55.85
14790;BME280;7486;51.010;10.366;2022-07-23T10:58:05;98527.38;;;21.18;54.83
14790;BME280;7486;51.010;10.366;2022-07-23T11:00:33;98501.72;;;20.91;57.21
14790;BME280;7486;51.010;10.366;2022-07-23T11:03:05;98533.53;;;21.09;55.28
14790;BME280;7486;51.010;10.366;2022-07-23T11:05:51;98529.28;;;21.94;54.83
14790;BME280;7486;51.010;10.366;2022-07-23T11:08:19;98526.06;;;21.56;52.08
14790;BME280;7486;51.010;10.366;2022-07-23T11:18:57;98520.47;;;22.57;51.65
14790;BME280;7486;51.010;10.366;2022-07-23T11:24:04;98523.00;;;22.29;51.15
14790;BME280;7486;51.010;10.366;2022-07-23T11:37:03;98517.31;;;22.35;47.27
14790;BME280;7486;51.010;10.366;2022-07-23T11:39:31;98489.94;;;21.83;52.43
14790;BME280;7486;51.010;10.366;2022-07-23T11:41:59;98513.69;;;22.70;51.07
14790;BME280;7486;51.010;10.366;2022-07-23T11:49:24;98472.19;;;23.39;45.33
14790;BME280;7486;51.010;10.366;2022-07-23T11:52:13;98497.03;;;23.75;47.51
14790;BME280;7486;51.010;10.366;2022-07-23T11:57:25;98500.31;;;23.72;45.00
14790;BME280;7486;51.010;10.366;2022-07-23T11:59:55;98499.25;;;23.67;46.06
14790;BME280;7486;51.010;10.366;2022-07-23T12:02:24;98502.78;;;24.20;45.82
14790;BME280;7486;51.010;10.366;2022-07-23T12:04:52;98499.88;;;24.59;46.93
14790;BME280;7486;51.010;10.366;2022-07-23T12:07:33;98493.97;;;25.00;44.70
14790;BME280;7486;51.010;10.366;2022-07-23T12:10:13;98492.75;;;25.25;44.21
14790;BME280;7486;51.010;10.366;2022-07-23T12:12:47;98484.78;;;25.65;43.67
14790;BME280;7486;51.010;10.366;2022-07-23T12:15:14;98485.06;;;25.96;41.45
14790;BME280;7486;51.010;10.366;2022-07-23T12:17:43;98487.09;;;25.72;40.35
14790;BME280;7486;51.010;10.366;2022-07-23T12:20:31;98484.63;;;24.68;40.41
14790;BME280;7486;51.010;10.366;2022-07-23T12:22:59;98484.78;;;23.82;41.65
14790;BME280;7486;51.010;10.366;2022-07-23T12:25:33;98477.63;;;23.67;42.20
14790;BME280;7486;51.010;10.366;2022-07-23T12:28:16;98474.19;;;22.84;44.21
14790;BME280;7486;51.010;10.366;2022-07-23T12:30:54;98476.03;;;22.89;44.47
14790;BME280;7486;51.010;10.366;2022-07-23T12:33:31;98474.56;;;22.62;44.93
14790;BME280;7486;51.010;10.366;2022-07-23T12:36:06;98471.13;;;22.96;43.64
14790;BME280;7486;51.010;10.366;2022-07-23T12:38:46;98470.50;;;23.14;43.12
14790;BME280;7486;51.010;10.366;2022-07-23T12:41:16;98470.44;;;23.19;42.81
14790;BME280;7486;51.010;10.366;2022-07-23T12:43:51;98454.31;;;23.09;46.42
14790;BME280;7486;51.010;10.366;2022-07-23T12:46:21;98477.13;;;23.60;42.33
14790;BME280;7486;51.010;10.366;2022-07-23T12:48:53;98478.25;;;23.54;45.23
14790;BME280;7486;51.010;10.366;2022-07-23T12:51:32;98480.78;;;24.03;42.49
14790;BME280;7486;51.010;10.366;2022-07-23T12:54:08;98471.16;;;24.16;41.52
14790;BME280;7486;51.010;10.366;2022-07-23T12:56:38;98474.00;;;23.14;43.03
14790;BME280;7486;51.010;10.366;2022-07-23T12:59:14;98475.41;;;23.07;43.52
14790;BME280;7486;51.010;10.366;2022-07-23T13:01:53;98476.38;;;23.21;44.05
14790;BME280;7486;51.010;10.366;2022-07-23T13:04:28;98477.78;;;23.47;43.46
14790;BME280;7486;51.010;10.366;2022-07-23T13:06:58;98473.22;;;23.77;42.86
14790;BME280;7486;51.010;10.366;2022-07-23T13:09:29;98474.38;;;23.65;42.11
14790;BME280;7486;51.010;10.366;2022-07-23T13:12:08;98469.81;;;23.32;44.48
14790;BME280;7486;51.010;10.366;2022-07-23T13:14:40;98478.56;;;23.82;40.58
14790;BME280;7486;51.010;10.366;2022-07-23T13:17:08;98468.19;;;23.31;43.84
14790;BME280;7486;51.010;10.366;2022-07-23T13:19:37;98473.28;;;23.95;44.21
14790;BME280;7486;51.010;10.366;2022-07-23T13:22:08;98470.13;;;23.59;42.23
14790;BME280;7486;51.010;10.366;2022-07-23T13:24:36;98462.94;;;24.02;41.64
14790;BME280;7486;51.010;10.366;2022-07-23T13:27:05;98464.81;;;24.02;40.62
14790;BME280;7486;51.010;10.366;2022-07-23T13:29:34;98477.31;;;23.98;41.07
14790;BME280;7486;51.010;10.366;2022-07-23T13:32:06;98470.94;;;23.89;40.27
14790;BME280;7486;51.010;10.366;2022-07-23T13:34:40;98440.00;;;23.95;42.20
14790;BME280;7486;51.010;10.366;2022-07-23T13:37:10;98472.25;;;24.39;39.86
14790;BME280;7486;51.010;10.366;2022-07-23T13:39:38;98472.34;;;24.52;40.45
14790;BME280;7486;51.010;10.366;2022-07-23T13:42:10;98476.22;;;24.89;38.30
14790;BME280;7486;51.010;10.366;2022-07-23T13:44:42;98480.00;;;25.25;38.80
14790;BME280;7486;51.010;10.366;2022-07-23T13:47:11;98476.69;;;25.47;38.61
14790;BME280;7486;51.010;10.366;2022-07-23T13:49:38;98463.88;;;24.40;37.41
14790;BME280;7486;51.010;10.366;2022-07-23T13:52:06;98466.97;;;24.05;38.72
14790;BME280;7486;51.010;10.366;2022-07-23T13:54:34;98475.25;;;23.27;40.33
14790;BME280;7486;51.010;10.366;2022-07-23T13:57:03;98456.66;;;23.20;41.47
14790;BME280;7486;51.010;10.366;2022-07-23T13:59:35;98481.63;;;23.75;39.38
14790;BME280;7486;51.010;10.366;2022-07-23T14:02:04;98480.97;;;23.54;39.86
14790;BME280;7486;51.010;10.366;2022-07-23T14:04:51;98474.44;;;23.89;38.33
14790;BME280;7486;51.010;10.366;2022-07-23T14:07:20;98476.66;;;24.11;39.40
14790;BME280;7486;51.010;10.366;2022-07-23T14:09:48;98477.03;;;23.99;38.18
14790;BME280;7486;51.010;10.366;2022-07-23T14:12:16;98480.00;;;24.27;40.31